This is the latest recevied weather packets stored in our database for station/object VA3PC-13. If no packets are shown the sender has not sent any weather packets the latest 10 day(s).
| Time | Temp. | Humidity | Pressure | Rain* | Wind** | Luminosity | Snow |
|---|---|---|---|---|---|---|---|
| 1777874117 | 5.56° C | 98% | 973.3 hPa | 0 mm | - | 0 W/m² | - |
| 1777872318 | 5.56° C | 98% | 973.6 hPa | 0 mm | - | 0 W/m² | - |
| 1777871717 | 5.56° C | 98% | 973.7 hPa | 0 mm | - | 0 W/m² | - |
| 1777868738 | 5.56° C | 97% | 974.3 hPa | 0 mm | - | 0 W/m² | - |
| 1777867539 | 5.56° C | 97% | 974.4 hPa | 1.27 mm | - | 0 W/m² | - |
| 1777863320 | 5.56° C | 92% | 974.9 hPa | 3.3 mm | - | 0 W/m² | - |
| 1777853720 | 7.22° C | 75% | 976 hPa | 0 mm | - | 4 W/m² | - |
| 1777851319 | 7.22° C | 72% | 976.2 hPa | 0 mm | - | 13 W/m² | - |
| 1777850117 | 7.22° C | 72% | 976.4 hPa | 0 mm | - | 19 W/m² | - |
| 1777849517 | 7.22° C | 71% | 976.5 hPa | 0 mm | - | 10 W/m² | - |
| 1777846519 | 7.22° C | 68% | 976.8 hPa | 0 mm | - | 41 W/m² | - |
| 1777844118 | 7.78° C | 66% | 977.4 hPa | 0 mm | - | 37 W/m² | - |
| 1777842318 | 8.89° C | 56% | 977.3 hPa | 0 mm | - | 58 W/m² | - |
| 1777841118 | 10° C | 49% | 976.9 hPa | 0 mm | - | 96 W/m² | - |
| 1777839319 | 11.11° C | 43% | 976.5 hPa | 0 mm | - | 179 W/m² | - |
| 1777837519 | 11.67° C | 39% | 976.5 hPa | 0 mm | - | 224 W/m² | - |
| 1777836317 | 11.11° C | 42% | 976.5 hPa | 0 mm | - | 357 W/m² | - |
| 1777835717 | 11.11° C | 44% | 977 hPa | 0 mm | - | 282 W/m² | - |
| 1777832717 | 10.56° C | 44% | 976.8 hPa | 0 mm | - | 1034 W/m² | - |
| 1777830318 | 11.67° C | 41% | 977.7 hPa | 0 mm | - | 840 W/m² | - |
| 1777827920 | 10.56° C | 42% | 978.1 hPa | 0 mm | - | 893 W/m² | - |
| 1777824319 | 7.78° C | 45% | 979.1 hPa | 0 mm | - | 795 W/m² | - |
| 1777822517 | 7.78° C | 48% | 979.4 hPa | 0 mm | - | 799 W/m² | - |
| 1777821917 | 7.22° C | 49% | 979.5 hPa | 0 mm | - | 789 W/m² | - |
| 1777818938 | 6.67° C | 56% | 979 hPa | 0 mm | - | 684 W/m² | - |
* Rain latest hour (hover to see other rain measurements)
** Current wind speed in m/s (hover to see current wind gust speed)